Time;durP1;ratioP1;P1;durP2;ratioP2;P2;SDS_P1;SDS_P2;PMS_P1;PMS_P2;Temp;Humidity;BMP_temperature;BMP_pressure;BME280_temperature;BME280_humidity;BME280_pressure;Samples;Min_cycle;Max_cycle;Signal;HPM_P1;HPM_P2
2021/12/11 00:01:44;;;;;;;24.80;23.05;;;;;;;;;;5057458;28;20264;-86
2021/12/11 00:04:13;;;;;;;25.85;23.83;;;;;;;;;;5074752;28;20653;-86
2021/12/11 00:06:42;;;;;;;24.88;22.80;;;;;;;;;;5074946;28;20242;-85
2021/12/11 00:09:13;;;;;;;25.13;23.23;;;;;;;;;;5074962;28;20189;-86
2021/12/11 00:11:41;;;;;;;24.05;22.55;;;;;;;;;;5074995;28;20673;-86
2021/12/11 00:14:10;;;;;;;24.17;22.60;;;;;;;;;;5056625;28;20253;-86
2021/12/11 00:16:39;;;;;;;24.95;23.15;;;;;;;;;;5074956;28;20191;-86
2021/12/11 00:19:07;;;;;;;25.77;23.55;;;;;;;;;;5075662;28;20188;-85
2021/12/11 00:21:34;;;;;;;24.75;23.05;;;;;;;;;;5074986;28;20249;-86
2021/12/11 00:24:04;;;;;;;23.77;22.27;;;;;;;;;;5074921;28;20192;-86
2021/12/11 00:26:35;;;;;;;25.60;23.95;;;;;;;;;;5075065;28;20238;-87
2021/12/11 00:29:02;;;;;;;24.98;23.30;;;;;;;;;;5074768;28;20211;-86
2021/12/11 00:31:32;;;;;;;25.02;23.10;;;;;;;;;;5074870;28;20228;-86
2021/12/11 00:34:00;;;;;;;24.00;22.35;;;;;;;;;;5075169;28;20188;-87
2021/12/11 00:36:32;;;;;;;29.42;27.02;;;;;;;;;;5076346;28;20192;-86
2021/12/11 00:39:02;;;;;;;28.02;26.00;;;;;;;;;;5081103;28;20216;-86
2021/12/11 00:41:32;;;;;;;27.23;24.35;;;;;;;;;;5054413;28;20184;-86
2021/12/11 00:44:01;;;;;;;25.83;23.38;;;;;;;;;;5072304;28;20193;-86
2021/12/11 00:46:29;;;;;;;25.85;23.90;;;;;;;;;;5090372;28;20239;-86
2021/12/11 00:49:07;;;;;;;25.75;24.00;;;;;;;;;;5083235;28;20191;-86
2021/12/11 00:51:35;;;;;;;27.65;25.35;;;;;;;;;;5074562;28;20661;-86
2021/12/11 00:54:03;;;;;;;24.60;23.00;;;;;;;;;;5074309;28;20187;-86
2021/12/11 00:56:32;;;;;;;25.67;23.63;;;;;;;;;;5074177;28;20600;-86
2021/12/11 00:59:01;;;;;;;25.67;23.55;;;;;;;;;;5074147;28;20207;-85
2021/12/11 01:01:29;;;;;;;25.52;23.73;;;;;;;;;;5073934;28;20210;-86
2021/12/11 01:04:00;;;;;;;25.20;23.52;;;;;;;;;;5074111;28;20324;-86
2021/12/11 01:06:28;;;;;;;25.05;23.50;;;;;;;;;;5073962;28;20208;-85
2021/12/11 01:08:58;;;;;;;25.38;23.55;;;;;;;;;;5074233;28;20188;-86
2021/12/11 01:11:27;;;;;;;25.55;23.75;;;;;;;;;;5073848;28;20247;-86
2021/12/11 01:14:06;;;;;;;23.95;22.38;;;;;;;;;;5072898;28;20549;-85
2021/12/11 01:16:33;;;;;;;25.25;23.40;;;;;;;;;;5074114;28;20193;-86
2021/12/11 01:19:06;;;;;;;23.65;22.25;;;;;;;;;;5074104;28;20199;-86
2021/12/11 01:21:44;;;;;;;24.75;23.20;;;;;;;;;;5074176;28;20279;-85
2021/12/11 01:24:28;;;;;;;25.92;24.02;;;;;;;;;;5081964;28;20253;-85
2021/12/11 01:26:57;;;;;;;24.90;23.20;;;;;;;;;;5084405;28;20235;-86
2021/12/11 01:29:26;;;;;;;25.92;23.85;;;;;;;;;;5085044;28;20183;-86
2021/12/11 01:31:56;;;;;;;25.13;23.20;;;;;;;;;;5080054;28;20219;-86
2021/12/11 01:34:27;;;;;;;25.02;23.05;;;;;;;;;;5075607;28;20218;-86
2021/12/11 01:36:54;;;;;;;24.73;22.98;;;;;;;;;;5074768;28;20306;-86
2021/12/11 01:39:23;;;;;;;24.70;22.90;;;;;;;;;;5076130;28;20605;-86
2021/12/11 01:41:52;;;;;;;25.83;23.52;;;;;;;;;;5094715;28;20190;-86
2021/12/11 01:44:21;;;;;;;24.40;22.80;;;;;;;;;;5094653;28;20191;-86
2021/12/11 01:46:51;;;;;;;24.15;22.75;;;;;;;;;;5094808;28;20187;-86
2021/12/11 01:49:20;;;;;;;24.10;22.60;;;;;;;;;;5094085;28;20195;-85
2021/12/11 01:51:52;;;;;;;24.27;22.77;;;;;;;;;;5093494;28;20214;-86
2021/12/11 01:54:21;;;;;;;24.02;22.42;;;;;;;;;;5094300;28;20209;-85
2021/12/11 01:56:50;;;;;;;24.35;22.80;;;;;;;;;;5097445;28;20579;-85
2021/12/11 01:59:19;;;;;;;24.38;22.85;;;;;;;;;;5111044;28;20203;-86
2021/12/11 02:01:48;;;;;;;26.30;24.08;;;;;;;;;;5111123;28;20257;-86
2021/12/11 02:04:17;;;;;;;23.30;21.88;;;;;;;;;;5103370;28;20191;-86
2021/12/11 02:06:47;;;;;;;24.48;22.75;;;;;;;;;;5093640;28;20240;-85
2021/12/11 02:09:19;;;;;;;24.45;22.83;;;;;;;;;;5093485;28;20186;-86
2021/12/11 02:11:47;;;;;;;24.08;22.58;;;;;;;;;;5093356;28;20313;-86
2021/12/11 02:14:20;;;;;;;24.40;22.70;;;;;;;;;;5093122;28;20191;-86
2021/12/11 02:16:48;;;;;;;23.70;22.15;;;;;;;;;;5093029;28;20962;-86
2021/12/11 02:19:28;;;;;;;24.45;22.95;;;;;;;;;;5093229;28;20199;-85
2021/12/11 02:21:59;;;;;;;23.70;22.10;;;;;;;;;;5093252;28;20202;-86
2021/12/11 02:24:32;;;;;;;24.08;22.67;;;;;;;;;;5093422;28;20194;-85
2021/12/11 02:26:59;;;;;;;25.92;23.88;;;;;;;;;;5093339;28;20659;-85
2021/12/11 02:29:30;;;;;;;23.95;22.50;;;;;;;;;;5093609;28;20199;-85
2021/12/11 02:32:00;;;;;;;24.50;23.00;;;;;;;;;;5093008;28;20226;-86
2021/12/11 02:34:32;;;;;;;24.60;22.88;;;;;;;;;;5075501;28;20206;-86
2021/12/11 02:37:06;;;;;;;25.02;23.13;;;;;;;;;;5092956;28;20707;-85
2021/12/11 02:39:36;;;;;;;24.38;22.67;;;;;;;;;;5094517;28;20231;-85
2021/12/11 02:42:07;;;;;;;24.50;22.58;;;;;;;;;;5097100;28;20209;-86
2021/12/11 02:44:37;;;;;;;23.98;22.38;;;;;;;;;;5096967;28;20183;-86
2021/12/11 02:47:08;;;;;;;23.92;22.38;;;;;;;;;;5096832;28;20194;-86
2021/12/11 02:49:37;;;;;;;23.70;22.10;;;;;;;;;;5096844;28;20260;-87
2021/12/11 02:52:09;;;;;;;24.23;22.75;;;;;;;;;;5096610;28;20222;-86
2021/12/11 02:54:39;;;;;;;24.60;23.05;;;;;;;;;;5096993;28;20187;-86
2021/12/11 02:57:08;;;;;;;24.20;22.60;;;;;;;;;;5096784;28;20190;-86
2021/12/11 02:59:41;;;;;;;23.98;22.48;;;;;;;;;;5078838;28;20284;-86
2021/12/11 03:02:11;;;;;;;24.27;22.58;;;;;;;;;;5096553;28;20188;-86
2021/12/11 03:04:45;;;;;;;25.23;23.35;;;;;;;;;;5078472;28;20207;-86
2021/12/11 03:07:15;;;;;;;23.63;22.20;;;;;;;;;;5078537;28;20312;-86
2021/12/11 03:09:44;;;;;;;24.73;22.80;;;;;;;;;;5096159;28;20720;-86
2021/12/11 03:12:13;;;;;;;24.75;23.05;;;;;;;;;;5096467;28;20222;-86
2021/12/11 03:14:40;;;;;;;25.30;23.60;;;;;;;;;;5096474;28;20206;-86
2021/12/11 03:17:08;;;;;;;24.50;22.75;;;;;;;;;;5096420;28;20207;-85
2021/12/11 03:19:39;;;;;;;24.65;23.08;;;;;;;;;;5095971;28;20199;-86
2021/12/11 03:22:08;;;;;;;25.08;23.25;;;;;;;;;;5096541;28;20604;-86
2021/12/11 03:24:37;;;;;;;25.23;23.63;;;;;;;;;;5077858;28;20217;-86
2021/12/11 03:27:05;;;;;;;24.65;22.90;;;;;;;;;;5096002;28;20277;-85
2021/12/11 03:29:32;;;;;;;24.23;22.63;;;;;;;;;;5095783;28;20195;-86
2021/12/11 03:32:00;;;;;;;24.05;22.30;;;;;;;;;;5097585;28;20242;-86
2021/12/11 03:34:28;;;;;;;24.13;22.30;;;;;;;;;;5078363;28;20651;-86
2021/12/11 03:36:57;;;;;;;24.08;22.58;;;;;;;;;;5096062;28;20690;-86
2021/12/11 03:39:26;;;;;;;24.13;22.42;;;;;;;;;;5095541;28;20230;-86
2021/12/11 03:41:56;;;;;;;23.80;22.27;;;;;;;;;;5096224;28;20195;-86
2021/12/11 03:44:28;;;;;;;24.35;22.55;;;;;;;;;;5077450;28;20228;-86
2021/12/11 03:46:56;;;;;;;25.35;23.65;;;;;;;;;;5095933;28;20194;-86
2021/12/11 03:49:23;;;;;;;23.85;22.13;;;;;;;;;;5097052;28;20244;-86
2021/12/11 03:51:52;;;;;;;23.73;22.02;;;;;;;;;;5097849;28;20279;-86
2021/12/11 03:54:21;;;;;;;23.73;22.33;;;;;;;;;;5098081;28;20195;-86
2021/12/11 03:56:49;;;;;;;23.58;21.80;;;;;;;;;;5099404;28;20191;-86
2021/12/11 03:59:18;;;;;;;23.48;21.98;;;;;;;;;;5095167;28;20190;-85
2021/12/11 04:01:47;;;;;;;23.52;21.92;;;;;;;;;;5095113;28;20887;-86
2021/12/11 04:04:16;;;;;;;23.77;22.10;;;;;;;;;;5095436;28;20191;-86
2021/12/11 04:06:44;;;;;;;23.83;22.33;;;;;;;;;;5095477;28;20536;-86
2021/12/11 04:09:14;;;;;;;23.75;22.35;;;;;;;;;;5095384;28;20544;-87
2021/12/11 04:11:42;;;;;;;23.73;22.23;;;;;;;;;;5095060;28;20263;-86
2021/12/11 04:14:11;;;;;;;24.10;22.67;;;;;;;;;;5094874;28;20240;-86
2021/12/11 04:16:40;;;;;;;24.02;22.42;;;;;;;;;;5094975;28;20214;-85
2021/12/11 04:19:09;;;;;;;24.05;22.55;;;;;;;;;;5094611;28;20202;-86
2021/12/11 04:21:38;;;;;;;25.80;24.00;;;;;;;;;;5095109;28;20183;-85
2021/12/11 04:24:06;;;;;;;24.75;23.15;;;;;;;;;;5094607;28;20186;-87
2021/12/11 04:26:34;;;;;;;26.55;24.05;;;;;;;;;;5094782;28;20190;-85
2021/12/11 04:29:01;;;;;;;24.77;23.17;;;;;;;;;;5094426;28;20187;-86
2021/12/11 04:31:30;;;;;;;26.00;24.15;;;;;;;;;;5094305;28;20222;-86
2021/12/11 04:34:02;;;;;;;25.00;23.10;;;;;;;;;;5094237;28;20188;-86
2021/12/11 04:36:31;;;;;;;24.15;22.65;;;;;;;;;;5094716;28;20279;-86
2021/12/11 04:38:58;;;;;;;24.88;23.48;;;;;;;;;;5094614;28;20192;-86
2021/12/11 04:41:31;;;;;;;30.25;28.05;;;;;;;;;;5093965;28;20241;-86
2021/12/11 04:43:59;;;;;;;32.50;29.58;;;;;;;;;;5079927;28;20290;-85
2021/12/11 04:46:26;;;;;;;26.27;24.58;;;;;;;;;;5073957;28;20195;-86
2021/12/11 04:49:00;;;;;;;25.20;23.60;;;;;;;;;;5074115;28;20188;-86
2021/12/11 04:51:36;;;;;;;24.92;23.33;;;;;;;;;;5073914;28;20672;-86
2021/12/11 04:54:17;;;;;;;25.13;23.42;;;;;;;;;;5073880;28;20191;-86
2021/12/11 04:57:10;;;;;;;26.52;24.40;;;;;;;;;;5073722;28;20588;-86
2021/12/11 04:59:50;;;;;;;25.73;24.13;;;;;;;;;;5073753;28;20195;-86
2021/12/11 05:02:50;;;;;;;27.38;25.45;;;;;;;;;;5072846;28;20191;-85
2021/12/11 05:05:26;;;;;;;27.23;25.23;;;;;;;;;;5073381;28;20290;-87
2021/12/11 05:08:14;;;;;;;27.50;25.58;;;;;;;;;;5073461;28;20636;-86
2021/12/11 05:10:51;;;;;;;26.35;24.30;;;;;;;;;;5073499;28;20249;-86
2021/12/11 05:13:18;;;;;;;26.23;24.42;;;;;;;;;;5073327;28;20624;-85
2021/12/11 05:15:48;;;;;;;26.23;24.35;;;;;;;;;;5073513;28;20183;-86
2021/12/11 05:18:16;;;;;;;26.90;25.25;;;;;;;;;;5073442;28;20516;-86
2021/12/11 05:20:45;;;;;;;26.67;24.98;;;;;;;;;;5073217;28;20192;-86
2021/12/11 05:23:16;;;;;;;28.35;26.10;;;;;;;;;;5073413;28;20192;-85
2021/12/11 05:25:43;;;;;;;27.10;25.08;;;;;;;;;;5073710;28;20282;-86
2021/12/11 05:28:11;;;;;;;27.95;25.92;;;;;;;;;;5073109;28;20196;-86
2021/12/11 05:30:39;;;;;;;28.08;25.52;;;;;;;;;;5073083;28;20192;-86
2021/12/11 05:33:07;;;;;;;27.05;24.80;;;;;;;;;;5072940;28;20545;-86
2021/12/11 05:35:35;;;;;;;27.60;25.60;;;;;;;;;;5073243;28;20238;-86
2021/12/11 05:38:04;;;;;;;26.45;24.52;;;;;;;;;;5055918;28;20187;-85
2021/12/11 05:40:34;;;;;;;28.23;25.83;;;;;;;;;;5072698;28;20254;-86
2021/12/11 05:43:01;;;;;;;25.38;23.45;;;;;;;;;;5079001;28;20194;-86
2021/12/11 05:45:29;;;;;;;27.77;25.48;;;;;;;;;;5092829;28;20195;-86
2021/12/11 05:47:56;;;;;;;26.77;24.83;;;;;;;;;;5075200;28;20200;-85
2021/12/11 05:50:26;;;;;;;27.67;25.65;;;;;;;;;;5093191;28;20199;-85
2021/12/11 05:52:53;;;;;;;27.48;25.58;;;;;;;;;;5092943;28;20225;-86
2021/12/11 05:55:21;;;;;;;26.63;24.75;;;;;;;;;;5092975;28;20187;-85
2021/12/11 05:57:54;;;;;;;28.85;26.40;;;;;;;;;;5092921;28;20282;-86
2021/12/11 06:00:23;;;;;;;28.63;26.63;;;;;;;;;;5092932;28;20192;-85
2021/12/11 06:02:50;;;;;;;27.98;25.95;;;;;;;;;;5092719;28;20183;-86
2021/12/11 06:05:18;;;;;;;29.15;27.05;;;;;;;;;;5092906;28;20195;-85
2021/12/11 06:07:45;;;;;;;27.48;25.67;;;;;;;;;;5093064;28;20183;-85
2021/12/11 06:10:15;;;;;;;28.00;26.00;;;;;;;;;;5092970;28;20198;-85
2021/12/11 06:12:43;;;;;;;28.48;26.48;;;;;;;;;;5074995;28;20253;-85
2021/12/11 06:15:12;;;;;;;29.35;27.20;;;;;;;;;;5096646;28;20191;-85
2021/12/11 06:17:42;;;;;;;29.52;27.42;;;;;;;;;;5096950;28;20629;-85
2021/12/11 06:20:11;;;;;;;31.45;28.90;;;;;;;;;;5096749;28;20193;-85
2021/12/11 06:22:39;;;;;;;28.05;26.10;;;;;;;;;;5078466;28;20198;-86
2021/12/11 06:25:08;;;;;;;29.23;26.77;;;;;;;;;;5097126;28;20236;-85
2021/12/11 06:27:35;;;;;;;31.20;28.40;;;;;;;;;;5096923;28;20244;-86
2021/12/11 06:30:03;;;;;;;29.73;27.42;;;;;;;;;;5096817;28;20594;-85
2021/12/11 06:32:32;;;;;;;28.25;26.20;;;;;;;;;;5096427;28;20238;-86
2021/12/11 06:35:02;;;;;;;29.45;27.38;;;;;;;;;;5078322;28;20287;-85
2021/12/11 06:37:29;;;;;;;29.35;27.23;;;;;;;;;;5096643;28;20191;-85
2021/12/11 06:39:57;;;;;;;29.73;27.52;;;;;;;;;;5096274;28;20290;-85
2021/12/11 06:42:24;;;;;;;29.70;27.35;;;;;;;;;;5095665;28;20240;-84
2021/12/11 06:44:52;;;;;;;30.13;27.17;;;;;;;;;;5076068;28;20192;-85
2021/12/11 06:47:20;;;;;;;28.85;26.75;;;;;;;;;;5076204;28;20191;-85
2021/12/11 06:49:48;;;;;;;29.38;27.08;;;;;;;;;;5075891;28;20199;-85
2021/12/11 06:52:17;;;;;;;30.02;27.38;;;;;;;;;;5076264;28;20220;-85
2021/12/11 06:54:45;;;;;;;32.83;29.85;;;;;;;;;;5075733;28;20633;-85
2021/12/11 06:57:12;;;;;;;28.75;26.83;;;;;;;;;;5075855;28;20190;-85
2021/12/11 06:59:40;;;;;;;29.92;27.73;;;;;;;;;;5075476;28;20637;-84
2021/12/11 07:02:08;;;;;;;28.98;26.90;;;;;;;;;;5075743;28;20207;-85
2021/12/11 07:04:36;;;;;;;30.35;27.83;;;;;;;;;;5075913;28;20188;-85
2021/12/11 07:07:05;;;;;;;29.15;27.05;;;;;;;;;;5075784;28;20545;-85
2021/12/11 07:09:33;;;;;;;33.95;30.80;;;;;;;;;;5075917;28;20545;-85
2021/12/11 07:12:02;;;;;;;30.80;28.40;;;;;;;;;;5075619;28;20200;-85
2021/12/11 07:14:30;;;;;;;31.65;28.92;;;;;;;;;;5075472;28;20664;-86
2021/12/11 07:16:58;;;;;;;30.35;28.02;;;;;;;;;;5075622;28;20646;-85
2021/12/11 07:19:26;;;;;;;33.33;30.63;;;;;;;;;;5075419;28;20194;-85
2021/12/11 07:21:55;;;;;;;32.40;29.70;;;;;;;;;;5075468;28;20237;-84
2021/12/11 07:24:27;;;;;;;33.67;30.73;;;;;;;;;;5074627;28;20192;-84
2021/12/11 07:26:54;;;;;;;34.67;31.48;;;;;;;;;;5074759;28;20204;-84
2021/12/11 07:29:22;;;;;;;33.72;31.23;;;;;;;;;;5075467;28;20548;-84
2021/12/11 07:31:51;;;;;;;33.72;31.13;;;;;;;;;;5074638;28;20298;-84
2021/12/11 07:34:18;;;;;;;34.67;31.13;;;;;;;;;;5074552;28;20715;-83
2021/12/11 07:36:47;;;;;;;31.73;29.20;;;;;;;;;;5074772;28;20271;-84
2021/12/11 07:39:16;;;;;;;33.47;30.83;;;;;;;;;;5074356;28;20195;-85
2021/12/11 07:41:46;;;;;;;32.70;29.80;;;;;;;;;;5056677;28;20256;-84
2021/12/11 07:44:14;;;;;;;32.03;29.50;;;;;;;;;;5090158;28;20195;-85
2021/12/11 07:46:42;;;;;;;32.58;30.05;;;;;;;;;;5094884;28;20206;-85
2021/12/11 07:49:09;;;;;;;33.58;30.75;;;;;;;;;;5060134;28;20232;-84
2021/12/11 07:51:37;;;;;;;32.10;29.60;;;;;;;;;;5094864;28;20894;-85
2021/12/11 07:54:05;;;;;;;31.63;29.08;;;;;;;;;;5094514;28;20250;-85
2021/12/11 07:56:33;;;;;;;31.98;29.42;;;;;;;;;;5094756;28;20724;-85
2021/12/11 07:59:03;;;;;;;33.05;30.40;;;;;;;;;;5094612;28;20244;-85
2021/12/11 08:01:31;;;;;;;32.88;30.42;;;;;;;;;;5094723;28;20199;-85
2021/12/11 08:04:00;;;;;;;31.17;28.85;;;;;;;;;;5094453;28;20191;-85
2021/12/11 08:06:28;;;;;;;33.88;31.15;;;;;;;;;;5094607;28;20196;-85
2021/12/11 08:08:55;;;;;;;31.92;29.30;;;;;;;;;;5094672;28;20191;-84
2021/12/11 08:11:25;;;;;;;31.85;29.40;;;;;;;;;;5094747;28;20191;-85
2021/12/11 08:13:53;;;;;;;33.28;30.42;;;;;;;;;;5094185;28;20227;-84
2021/12/11 08:16:26;;;;;;;30.40;28.08;;;;;;;;;;5094205;28;20194;-85
2021/12/11 08:18:54;;;;;;;30.17;27.52;;;;;;;;;;5094276;28;20572;-84
2021/12/11 08:21:24;;;;;;;32.80;30.20;;;;;;;;;;5094041;28;20226;-85
2021/12/11 08:23:54;;;;;;;32.70;30.10;;;;;;;;;;5094400;28;20199;-84
2021/12/11 08:26:23;;;;;;;32.95;30.45;;;;;;;;;;5075586;28;20283;-83
2021/12/11 08:28:51;;;;;;;34.47;31.25;;;;;;;;;;5093561;28;20605;-83
2021/12/11 08:31:18;;;;;;;35.45;32.55;;;;;;;;;;5093289;28;20203;-81
2021/12/11 08:33:48;;;;;;;32.75;30.25;;;;;;;;;;5093658;28;20222;-82
2021/12/11 08:36:16;;;;;;;33.53;30.98;;;;;;;;;;5093517;28;20191;-83
2021/12/11 08:38:44;;;;;;;32.53;30.15;;;;;;;;;;5093220;28;20202;-83
2021/12/11 08:41:13;;;;;;;35.25;32.50;;;;;;;;;;5093097;28;20707;-83
2021/12/11 08:43:41;;;;;;;34.92;32.13;;;;;;;;;;5082231;28;20188;-83
2021/12/11 08:46:12;;;;;;;35.33;32.03;;;;;;;;;;5072846;28;20666;-83
2021/12/11 08:48:43;;;;;;;34.17;31.48;;;;;;;;;;5072812;28;20192;-82
2021/12/11 08:51:16;;;;;;;38.42;35.08;;;;;;;;;;5072716;28;20237;-82
2021/12/11 08:53:43;;;;;;;39.63;36.15;;;;;;;;;;5072970;28;20223;-83
2021/12/11 08:56:11;;;;;;;35.85;32.45;;;;;;;;;;5048847;28;20195;-82
2021/12/11 08:58:39;;;;;;;39.35;36.25;;;;;;;;;;5060797;28;20191;-83
2021/12/11 09:01:09;;;;;;;35.97;33.13;;;;;;;;;;5061771;28;20256;-82
2021/12/11 09:03:39;;;;;;;35.88;33.05;;;;;;;;;;5062649;28;20191;-83
2021/12/11 09:06:08;;;;;;;33.72;31.33;;;;;;;;;;5061833;28;20188;-82
2021/12/11 09:08:39;;;;;;;32.55;30.05;;;;;;;;;;5072793;28;20267;-83
2021/12/11 09:11:10;;;;;;;32.50;29.77;;;;;;;;;;5072701;28;20249;-81
2021/12/11 09:13:40;;;;;;;33.63;30.77;;;;;;;;;;5054316;28;20983;-83
2021/12/11 09:16:10;;;;;;;32.70;30.02;;;;;;;;;;5072284;28;20255;-83
2021/12/11 09:18:40;;;;;;;34.72;31.75;;;;;;;;;;5072207;28;20188;-83
2021/12/11 09:21:10;;;;;;;33.08;30.33;;;;;;;;;;5072522;28;20253;-83
2021/12/11 09:23:42;;;;;;;34.03;31.10;;;;;;;;;;5072181;28;20203;-83
2021/12/11 09:26:13;;;;;;;33.67;30.55;;;;;;;;;;5072451;28;20188;-82
2021/12/11 09:28:42;;;;;;;34.97;32.20;;;;;;;;;;5072421;28;20279;-83
2021/12/11 09:31:11;;;;;;;37.60;34.55;;;;;;;;;;5072093;28;20191;-83
2021/12/11 09:33:41;;;;;;;35.20;32.38;;;;;;;;;;5072187;28;20215;-83
2021/12/11 09:36:10;;;;;;;35.47;32.60;;;;;;;;;;5072096;28;20199;-83
2021/12/11 09:38:39;;;;;;;37.63;34.45;;;;;;;;;;5071789;28;20195;-82
2021/12/11 09:41:21;;;;;;;38.00;34.53;;;;;;;;;;5071794;28;20716;-83
2021/12/11 09:43:52;;;;;;;35.42;32.72;;;;;;;;;;5079367;28;20191;-83
2021/12/11 09:46:21;;;;;;;36.90;33.70;;;;;;;;;;5092394;28;20195;-83
2021/12/11 09:48:49;;;;;;;37.33;34.03;;;;;;;;;;5091788;28;20186;-82
2021/12/11 09:51:19;;;;;;;37.40;34.20;;;;;;;;;;5092348;28;20545;-83
2021/12/11 09:53:47;;;;;;;38.13;35.03;;;;;;;;;;5092048;28;20259;-82
2021/12/11 09:56:26;;;;;;;37.42;34.17;;;;;;;;;;5092333;28;20195;-84
2021/12/11 09:58:55;;;;;;;37.22;34.05;;;;;;;;;;5091955;28;20228;-83
2021/12/11 10:01:27;;;;;;;39.05;35.60;;;;;;;;;;5092037;28;20187;-83
2021/12/11 10:03:56;;;;;;;37.08;33.90;;;;;;;;;;5092237;28;20609;-83
2021/12/11 10:06:39;;;;;;;39.75;36.53;;;;;;;;;;5090758;28;20191;-82
2021/12/11 10:09:17;;;;;;;41.00;37.35;;;;;;;;;;5072576;28;20207;-83
2021/12/11 10:11:45;;;;;;;41.72;37.85;;;;;;;;;;5091945;28;20632;-83
2021/12/11 10:14:17;;;;;;;42.22;38.40;;;;;;;;;;5091844;28;20215;-83
2021/12/11 10:16:46;;;;;;;41.67;37.83;;;;;;;;;;5092225;28;20273;-83
2021/12/11 10:19:15;;;;;;;42.88;39.38;;;;;;;;;;5091915;28;20198;-82
2021/12/11 10:21:44;;;;;;;46.08;42.03;;;;;;;;;;5091799;28;20725;-82
2021/12/11 10:24:14;;;;;;;45.40;40.88;;;;;;;;;;5091642;28;20252;-84
2021/12/11 10:26:42;;;;;;;43.25;38.90;;;;;;;;;;5091878;28;20633;-84
2021/12/11 10:29:12;;;;;;;44.10;39.65;;;;;;;;;;5091749;28;20202;-84
2021/12/11 10:31:42;;;;;;;44.28;40.17;;;;;;;;;;5092031;28;20237;-83
2021/12/11 10:34:11;;;;;;;46.25;41.83;;;;;;;;;;5091763;28;20219;-83
2021/12/11 10:36:40;;;;;;;44.70;40.17;;;;;;;;;;5092113;28;20187;-87
2021/12/11 10:39:08;;;;;;;47.75;43.15;;;;;;;;;;5092930;28;20199;-88
2021/12/11 10:41:36;;;;;;;46.38;41.63;;;;;;;;;;5092935;28;20266;-86
2021/12/11 10:44:06;;;;;;;48.40;43.03;;;;;;;;;;5072005;28;20204;-82
2021/12/11 10:46:34;;;;;;;48.65;43.75;;;;;;;;;;5071157;28;20282;-81
2021/12/11 10:49:05;;;;;;;47.85;42.75;;;;;;;;;;5071195;28;20640;-82
2021/12/11 10:51:34;;;;;;;48.55;43.85;;;;;;;;;;5071231;28;20271;-82
2021/12/11 10:54:01;;;;;;;46.08;41.50;;;;;;;;;;5071401;28;20270;-82
2021/12/11 10:56:29;;;;;;;51.30;44.75;;;;;;;;;;5071037;28;20184;-81
2021/12/11 10:58:58;;;;;;;51.20;45.63;;;;;;;;;;5072138;28;20200;-88
2021/12/11 11:01:29;;;;;;;63.05;48.47;;;;;;;;;;5077103;28;20557;-89
2021/12/11 11:03:58;;;;;;;61.03;50.60;;;;;;;;;;5077364;28;20204;-90
2021/12/11 11:06:27;;;;;;;53.17;45.97;;;;;;;;;;5077520;28;20212;-87
2021/12/11 11:08:55;;;;;;;56.38;48.72;;;;;;;;;;5076494;28;20187;-87
2021/12/11 11:11:23;;;;;;;64.95;49.30;;;;;;;;;;5076631;28;20183;-89
2021/12/11 11:13:51;;;;;;;61.28;48.50;;;;;;;;;;5078007;28;20215;-87
2021/12/11 11:16:20;;;;;;;57.92;51.60;;;;;;;;;;5077160;28;20199;-84
2021/12/11 11:18:47;;;;;;;56.70;48.75;;;;;;;;;;5058457;28;20194;-82
2021/12/11 11:21:17;;;;;;;55.05;47.40;;;;;;;;;;5075419;28;20213;-85
2021/12/11 11:23:47;;;;;;;58.42;47.90;;;;;;;;;;5075397;28;20188;-85
2021/12/11 11:26:16;;;;;;;53.33;47.63;;;;;;;;;;5075223;28;20196;-85
2021/12/11 11:28:43;;;;;;;58.50;48.13;;;;;;;;;;5075143;28;20197;-85
2021/12/11 11:31:14;;;;;;;53.25;47.65;;;;;;;;;;5075027;28;20257;-85
2021/12/11 11:33:42;;;;;;;53.28;47.55;;;;;;;;;;5075081;28;20229;-85
2021/12/11 11:36:11;;;;;;;64.18;51.60;;;;;;;;;;5074942;28;20187;-84
2021/12/11 11:38:41;;;;;;;61.28;51.90;;;;;;;;;;5075015;28;20277;-84
2021/12/11 11:41:11;;;;;;;62.33;52.28;;;;;;;;;;5074990;28;20263;-85
2021/12/11 11:43:39;;;;;;;61.33;52.38;;;;;;;;;;5074487;28;20196;-85
2021/12/11 11:46:07;;;;;;;60.97;51.08;;;;;;;;;;5075078;28;20628;-85
2021/12/11 11:48:35;;;;;;;54.13;48.30;;;;;;;;;;5075015;28;20193;-84
2021/12/11 11:51:06;;;;;;;73.00;54.58;;;;;;;;;;5074619;28;20189;-84
2021/12/11 11:53:34;;;;;;;62.15;52.65;;;;;;;;;;5074530;28;20192;-84
2021/12/11 11:56:02;;;;;;;68.05;52.88;;;;;;;;;;5074579;28;20685;-84
2021/12/11 11:58:32;;;;;;;68.28;55.42;;;;;;;;;;5074695;28;20201;-84
2021/12/11 12:01:01;;;;;;;70.28;55.88;;;;;;;;;;5074374;28;20634;-84
2021/12/11 12:03:29;;;;;;;69.22;53.13;;;;;;;;;;5074494;28;20634;-84
2021/12/11 12:05:58;;;;;;;68.35;53.35;;;;;;;;;;5074241;28;20191;-84
2021/12/11 12:08:25;;;;;;;70.47;54.28;;;;;;;;;;5074337;28;20660;-84
2021/12/11 12:10:53;;;;;;;74.82;56.17;;;;;;;;;;5073966;28;20212;-84
2021/12/11 12:13:25;;;;;;;60.80;50.08;;;;;;;;;;5074589;28;20193;-85
2021/12/11 12:15:56;;;;;;;69.47;53.67;;;;;;;;;;5074462;28;20201;-84
2021/12/11 12:18:25;;;;;;;67.75;53.40;;;;;;;;;;5074250;28;20202;-83
2021/12/11 12:20:53;;;;;;;59.83;49.03;;;;;;;;;;5073510;28;20205;-82
2021/12/11 12:23:22;;;;;;;62.03;52.60;;;;;;;;;;5073718;28;20184;-86
2021/12/11 12:25:50;;;;;;;73.18;51.50;;;;;;;;;;5073737;28;20197;-87
2021/12/11 12:28:18;;;;;;;70.70;51.97;;;;;;;;;;5074478;28;20184;-86
2021/12/11 12:30:48;;;;;;;72.95;50.75;;;;;;;;;;5073108;28;20188;-82
2021/12/11 12:33:17;;;;;;;68.78;51.72;;;;;;;;;;5073396;28;20248;-82
2021/12/11 12:35:45;;;;;;;69.82;51.35;;;;;;;;;;5072795;28;20228;-82
2021/12/11 12:38:14;;;;;;;60.75;48.95;;;;;;;;;;5073258;28;20198;-82
2021/12/11 12:40:44;;;;;;;67.22;50.50;;;;;;;;;;5073064;28;20319;-81
2021/12/11 12:43:20;;;;;;;62.70;50.20;;;;;;;;;;5073354;28;20184;-82
2021/12/11 12:45:49;;;;;;;70.78;49.92;;;;;;;;;;5073262;28;20206;-82
2021/12/11 12:48:20;;;;;;;65.72;47.78;;;;;;;;;;5072956;28;20189;-82
2021/12/11 12:50:49;;;;;;;60.15;47.38;;;;;;;;;;5073110;28;20195;-82
2021/12/11 12:53:17;;;;;;;65.20;48.45;;;;;;;;;;5072828;28;20201;-82
2021/12/11 12:55:45;;;;;;;62.83;48.45;;;;;;;;;;5072660;28;20232;-82
2021/12/11 12:58:14;;;;;;;63.78;47.22;;;;;;;;;;5072861;28;20220;-82
2021/12/11 13:00:43;;;;;;;63.70;47.17;;;;;;;;;;5072482;28;20570;-83
2021/12/11 13:03:12;;;;;;;65.65;47.85;;;;;;;;;;5072470;28;20192;-82
2021/12/11 13:05:43;;;;;;;61.47;45.28;;;;;;;;;;5072837;28;20286;-82
2021/12/11 13:08:13;;;;;;;62.83;43.83;;;;;;;;;;5072421;28;20318;-82
2021/12/11 13:10:42;;;;;;;69.07;48.35;;;;;;;;;;5072462;28;20199;-82
2021/12/11 13:13:10;;;;;;;58.10;47.78;;;;;;;;;;5072343;28;20217;-82
2021/12/11 13:15:40;;;;;;;71.03;50.67;;;;;;;;;;5072212;28;20226;-82
2021/12/11 13:18:10;;;;;;;77.28;51.25;;;;;;;;;;5072564;28;20183;-81
2021/12/11 13:20:39;;;;;;;73.57;50.80;;;;;;;;;;5072945;28;20266;-92
2021/12/11 13:23:08;;;;;;;74.35;51.22;;;;;;;;;;5054841;28;20660;-83
2021/12/11 13:25:40;;;;;;;73.95;50.00;;;;;;;;;;5072600;28;20253;-83
2021/12/11 13:28:08;;;;;;;60.83;47.25;;;;;;;;;;5072919;28;20191;-83
2021/12/11 13:30:37;;;;;;;76.45;51.13;;;;;;;;;;5072665;28;20523;-83
2021/12/11 13:33:05;;;;;;;75.97;49.85;;;;;;;;;;5072787;28;20187;-83
2021/12/11 13:35:37;;;;;;;53.85;42.55;;;;;;;;;;5072424;28;20236;-83
2021/12/11 13:38:06;;;;;;;65.57;48.03;;;;;;;;;;5072940;28;20188;-83
2021/12/11 13:40:35;;;;;;;69.15;45.70;;;;;;;;;;5072245;28;20239;-81
2021/12/11 13:43:02;;;;;;;71.10;46.15;;;;;;;;;;5073021;28;20228;-84
2021/12/11 13:45:33;;;;;;;63.33;45.80;;;;;;;;;;5052059;28;20188;-83
2021/12/11 13:48:01;;;;;;;67.43;46.20;;;;;;;;;;5052158;28;20184;-82
2021/12/11 13:50:30;;;;;;;57.38;42.58;;;;;;;;;;5052298;28;20643;-83
2021/12/11 13:52:59;;;;;;;66.82;46.63;;;;;;;;;;5052539;28;20338;-84
2021/12/11 13:55:27;;;;;;;70.90;46.50;;;;;;;;;;5052331;28;20276;-83
2021/12/11 13:57:55;;;;;;;78.15;47.00;;;;;;;;;;5051840;28;20310;-83
2021/12/11 14:00:26;;;;;;;70.30;47.25;;;;;;;;;;5052023;28;20219;-82
2021/12/11 14:02:54;;;;;;;74.75;50.67;;;;;;;;;;5052518;28;20201;-85
2021/12/11 14:05:21;;;;;;;74.15;49.38;;;;;;;;;;5053093;28;20208;-84
2021/12/11 14:07:49;;;;;;;83.63;49.15;;;;;;;;;;5052574;28;20638;-86
2021/12/11 14:10:27;;;;;;;76.60;50.35;;;;;;;;;;5052797;28;20593;-85
2021/12/11 14:12:57;;;;;;;75.97;50.40;;;;;;;;;;5052775;28;20200;-85
2021/12/11 14:15:25;;;;;;;67.43;47.45;;;;;;;;;;5052632;28;20250;-83
2021/12/11 14:17:53;;;;;;;71.60;47.90;;;;;;;;;;5052298;28;20658;-84
2021/12/11 14:20:22;;;;;;;90.45;49.08;;;;;;;;;;5052312;28;20197;-83
2021/12/11 14:22:50;;;;;;;78.10;50.22;;;;;;;;;;5052319;28;20193;-83
2021/12/11 14:25:19;;;;;;;72.85;46.10;;;;;;;;;;5052117;28;20706;-84
2021/12/11 14:27:47;;;;;;;60.75;40.15;;;;;;;;;;5052116;28;20190;-83
2021/12/11 14:30:17;;;;;;;75.20;45.38;;;;;;;;;;5051902;28;20223;-83